Time;durP1;ratioP1;P1;durP2;ratioP2;P2;SDS_P1;SDS_P2;PMS_P1;PMS_P2;Temp;Humidity;BMP_temperature;BMP_pressure;BME280_temperature;BME280_humidity;BME280_pressure;Samples;Min_cycle;Max_cycle;Signal;HPM_P1;HPM_P2
2023/07/10 00:00:24;;;;;;;20.25;11.10;;;;;;;19.74;100.00;101381.56;4947649;28;20054;-73
2023/07/10 00:02:51;;;;;;;17.55;11.70;;;;;;;19.81;100.00;101389.69;4936622;28;20040;-74
2023/07/10 00:05:18;;;;;;;18.42;11.23;;;;;;;19.94;100.00;101397.81;4923843;29;20107;-73
2023/07/10 00:07:45;;;;;;;21.27;12.55;;;;;;;19.89;100.00;101392.19;4922403;29;20063;-74
2023/07/10 00:10:11;;;;;;;;;;;;;;;19.87;100.00;101393.44;4926703;29;20189;-73
2023/07/10 00:12:37;;;;;;;18.50;11.10;;;;;;;19.77;100.00;101389.28;4926485;29;20323;-73
2023/07/10 00:15:14;;;;;;;17.00;12.63;;;;;;;19.70;100.00;101374.06;4923215;29;20044;-73
2023/07/10 00:17:39;;;;;;;18.85;11.30;;;;;;;19.37;100.00;101361.28;4926844;29;20047;-73
2023/07/10 00:20:12;;;;;;;18.97;11.20;;;;;;;19.54;100.00;101359.00;4926486;29;20385;-73
2023/07/10 00:22:37;;;;;;;17.48;11.15;;;;;;;19.62;100.00;101361.53;4928126;29;20036;-73
2023/07/10 00:25:03;;;;;;;22.03;11.57;;;;;;;19.63;100.00;101348.81;4925363;29;20032;-74
2023/07/10 00:27:29;;;;;;;18.25;10.02;;;;;;;19.68;100.00;101352.59;4945806;28;20039;-73
2023/07/10 00:29:54;;;;;;;20.03;12.23;;;;;;;19.75;100.00;101352.59;4925993;29;20039;-73
2023/07/10 00:32:19;;;;;;;24.37;12.90;;;;;;;19.55;100.00;101333.59;4926174;29;20036;-73
2023/07/10 00:34:45;;;;;;;18.27;10.77;;;;;;;19.50;100.00;101327.97;4940336;28;20124;-74
2023/07/10 00:37:10;;;;;;;16.77;11.10;;;;;;;19.48;100.00;101320.06;4927673;29;20055;-73
2023/07/10 00:39:37;;;;;;;21.00;12.07;;;;;;;19.52;100.00;101317.75;4930404;29;20043;-74
2023/07/10 00:42:12;;;;;;;17.20;11.15;;;;;;;19.58;100.00;101316.94;4941047;28;20043;-73
2023/07/10 00:44:43;;;;;;;14.50;11.05;;;;;;;19.60;100.00;101325.69;4925103;29;20046;-74
2023/07/10 00:47:19;;;;;;;20.70;11.02;;;;;;;19.56;100.00;101316.31;4938879;28;20034;-74
2023/07/10 00:50:11;;;;;;;19.55;11.52;;;;;;;19.53;100.00;101311.31;4937455;28;20036;-73
2023/07/10 00:52:48;;;;;;;21.17;10.25;;;;;;;19.69;100.00;101331.75;4938561;28;20048;-73
2023/07/10 00:55:33;;;;;;;16.23;10.68;;;;;;;19.77;100.00;101331.56;4907428;29;20062;-73
2023/07/10 00:58:10;;;;;;;24.43;10.67;;;;;;;19.70;100.00;101339.69;4929525;29;20130;-73
2023/07/10 01:00:36;;;;;;;14.48;10.82;;;;;;;19.63;100.00;101311.72;4939248;28;20071;-73
2023/07/10 01:03:01;;;;;;;14.10;10.60;;;;;;;19.64;100.00;101302.53;4930796;29;20060;-73
2023/07/10 01:05:29;;;;;;;14.87;10.13;;;;;;;19.73;100.00;101295.91;4946627;28;20042;-74
2023/07/10 01:07:58;;;;;;;14.27;10.55;;;;;;;19.73;100.00;101285.06;4926848;29;20048;-73
2023/07/10 01:10:23;;;;;;;15.50;11.27;;;;;;;19.76;100.00;101297.34;4925126;28;20139;-73
2023/07/10 01:12:49;;;;;;;18.27;12.07;;;;;;;19.62;100.00;101291.13;4927563;29;20135;-73
2023/07/10 01:15:16;;;;;;;15.52;9.98;;;;;;;19.70;100.00;101306.34;4932006;28;20468;-73
2023/07/10 01:17:41;;;;;;;14.52;10.18;;;;;;;19.62;100.00;101293.81;4943961;28;20342;-73
2023/07/10 01:20:28;;;;;;;16.50;10.60;;;;;;;19.53;100.00;101282.38;4941549;28;20031;-74
2023/07/10 01:22:54;;;;;;;17.35;9.73;;;;;;;19.57;100.00;101275.50;4924662;29;20178;-73
2023/07/10 01:25:19;;;;;;;26.03;12.27;;;;;;;19.52;100.00;101282.56;4927718;29;20029;-74
2023/07/10 01:27:45;;;;;;;20.40;11.65;;;;;;;19.42;100.00;101280.28;4908541;29;20047;-73
2023/07/10 01:30:27;;;;;;;15.50;10.97;;;;;;;19.48;100.00;101292.13;4944750;28;20455;-73
2023/07/10 01:32:55;;;;;;;18.75;12.07;;;;;;;19.49;100.00;101294.63;4937942;28;20040;-73
2023/07/10 01:35:21;;;;;;;18.90;11.38;;;;;;;19.44;100.00;101285.50;4917071;29;20116;-73
2023/07/10 01:37:47;;;;;;;17.42;10.68;;;;;;;19.45;100.00;101284.44;4939616;28;20127;-74
2023/07/10 01:40:22;;;;;;;19.87;11.87;;;;;;;19.39;100.00;101288.81;4916948;29;20106;-73
2023/07/10 01:42:47;;;;;;;20.02;12.48;;;;;;;19.31;100.00;101283.59;4939956;28;20441;-73
2023/07/10 01:45:14;;;;;;;18.43;11.87;;;;;;;19.26;100.00;101283.38;4935495;28;20054;-73
2023/07/10 01:47:40;;;;;;;18.27;11.55;;;;;;;19.18;100.00;101284.44;4932932;29;20394;-73
2023/07/10 01:50:06;;;;;;;19.75;12.05;;;;;;;19.12;100.00;101291.47;4943095;28;20023;-73
2023/07/10 01:52:32;;;;;;;21.35;11.95;;;;;;;19.08;100.00;101295.66;4928216;29;20454;-74
2023/07/10 01:54:57;;;;;;;20.43;12.27;;;;;;;19.05;100.00;101289.81;4929551;29;20127;-74
2023/07/10 01:57:25;;;;;;;16.27;10.37;;;;;;;19.11;100.00;101305.22;4930146;28;20366;-73
2023/07/10 01:59:54;;;;;;;20.35;10.88;;;;;;;19.06;100.00;101288.75;4910934;29;20024;-73
2023/07/10 02:02:19;;;;;;;18.63;11.45;;;;;;;19.10;100.00;101295.44;4930354;29;20110;-73
2023/07/10 02:04:45;;;;;;;16.02;12.13;;;;;;;19.05;100.00;101282.53;4930388;29;20041;-73
2023/07/10 02:07:10;;;;;;;17.60;10.37;;;;;;;19.08;100.00;101289.38;4932116;29;20111;-73
2023/07/10 02:09:35;;;;;;;19.63;11.63;;;;;;;18.98;100.00;101279.78;4927671;29;20642;-73
2023/07/10 02:12:02;;;;;;;17.10;12.03;;;;;;;18.90;100.00;101296.22;4923731;29;20099;-73
2023/07/10 02:14:28;;;;;;;15.30;9.82;;;;;;;19.03;100.00;101298.13;4928535;29;20035;-73
2023/07/10 02:16:54;;;;;;;;;;;;;;;19.09;100.00;101304.59;4940975;28;20310;-73
2023/07/10 02:19:20;;;;;;;16.00;10.55;;;;;;;19.10;100.00;101295.44;4933612;29;19961;-73
2023/07/10 02:21:46;;;;;;;;;;;;;;;19.11;100.00;101291.72;4933998;29;20040;-73
2023/07/10 02:24:11;;;;;;;20.58;10.52;;;;;;;19.15;100.00;101288.38;4934114;29;19959;-74
2023/07/10 02:26:39;;;;;;;17.45;11.23;;;;;;;19.12;100.00;101282.53;4930812;29;20071;-73
2023/07/10 02:29:04;;;;;;;20.67;12.63;;;;;;;19.18;100.00;101287.13;4918317;29;20061;-73
2023/07/10 02:31:30;;;;;;;16.97;9.73;;;;;;;19.21;100.00;101294.84;4924675;29;20074;-73
2023/07/10 02:33:56;;;;;;;19.23;11.38;;;;;;;19.22;100.00;101288.38;4928021;28;20028;-73
2023/07/10 02:36:23;;;;;;;15.73;10.03;;;;;;;19.22;100.00;101293.78;4941393;28;20043;-73
2023/07/10 02:38:48;;;;;;;16.58;10.05;;;;;;;19.24;100.00;101297.13;4934448;28;20030;-73
2023/07/10 02:41:13;;;;;;;17.88;10.75;;;;;;;19.17;100.00;101294.44;4943327;29;20023;-73
2023/07/10 02:43:39;;;;;;;17.70;10.43;;;;;;;19.10;100.00;101306.25;4927067;29;20027;-73
2023/07/10 02:46:04;;;;;;;18.83;11.17;;;;;;;19.12;100.00;101310.44;4936067;29;20410;-73
2023/07/10 02:48:30;;;;;;;17.23;11.30;;;;;;;19.13;100.00;101305.88;4922260;29;20111;-73
2023/07/10 02:50:55;;;;;;;14.80;11.27;;;;;;;19.09;100.00;101302.72;4949277;28;20094;-73
2023/07/10 02:53:21;;;;;;;16.83;11.20;;;;;;;19.12;100.00;101320.41;4936833;28;20030;-73
2023/07/10 02:55:47;;;;;;;19.08;9.75;;;;;;;19.14;100.00;101323.75;4946825;28;20027;-73
2023/07/10 02:58:12;;;;;;;14.40;10.40;;;;;;;19.13;100.00;101324.81;4917636;29;20504;-73
2023/07/10 03:00:37;;;;;;;14.33;9.37;;;;;;;19.15;100.00;101339.81;4930215;29;20036;-72
2023/07/10 03:03:03;;;;;;;18.10;11.07;;;;;;;19.16;100.00;101337.94;4925884;29;20045;-73
2023/07/10 03:05:28;;;;;;;16.57;11.07;;;;;;;19.17;100.00;101334.16;4937240;29;20040;-73
2023/07/10 03:07:54;;;;;;;17.27;10.37;;;;;;;19.18;100.00;101335.84;4948707;28;20024;-73
2023/07/10 03:10:20;;;;;;;16.07;9.80;;;;;;;19.20;100.00;101341.91;4939412;28;20043;-73
2023/07/10 03:12:46;;;;;;;14.07;10.10;;;;;;;19.23;100.00;101333.34;4953173;28;20031;-73
2023/07/10 03:15:11;;;;;;;15.07;10.55;;;;;;;19.20;100.00;101328.38;4939859;28;20530;-73
2023/07/10 03:17:37;;;;;;;18.50;11.43;;;;;;;19.19;100.00;101332.09;4909904;29;20490;-73
2023/07/10 03:20:03;;;;;;;18.38;11.43;;;;;;;19.18;100.00;101330.44;4951472;28;20057;-73
2023/07/10 03:22:29;;;;;;;15.10;10.23;;;;;;;19.17;100.00;101326.03;4935077;28;20031;-73
2023/07/10 03:24:55;;;;;;;20.08;10.60;;;;;;;19.15;100.00;101331.69;4928963;29;20127;-73
2023/07/10 03:27:21;;;;;;;21.63;10.75;;;;;;;19.18;100.00;101336.69;4937956;29;20031;-73
2023/07/10 03:29:47;;;;;;;19.75;10.27;;;;;;;19.21;100.00;101324.59;4937025;28;20350;-73
2023/07/10 03:32:12;;;;;;;16.52;10.57;;;;;;;19.24;100.00;101329.59;4936171;29;20034;-73
2023/07/10 03:34:38;;;;;;;12.80;9.07;;;;;;;19.26;100.00;101326.69;4938796;28;20114;-73
2023/07/10 03:37:04;;;;;;;15.70;10.10;;;;;;;19.22;100.00;101317.31;4953939;28;20970;-72
2023/07/10 03:39:30;;;;;;;13.85;9.35;;;;;;;19.23;100.00;101321.69;4935991;28;20039;-73
2023/07/10 03:41:55;;;;;;;19.58;9.45;;;;;;;19.23;100.00;101325.25;4937739;29;20151;-73
2023/07/10 03:44:21;;;;;;;16.73;9.53;;;;;;;19.24;100.00;101321.47;4935876;29;20057;-73
2023/07/10 03:46:46;;;;;;;14.70;9.60;;;;;;;19.23;100.00;101310.88;4941505;28;20028;-73
2023/07/10 03:49:11;;;;;;;14.80;10.03;;;;;;;19.19;100.00;101313.97;4930105;28;20035;-73
2023/07/10 03:51:37;;;;;;;16.40;9.70;;;;;;;19.20;100.00;101317.53;4941203;28;20378;-73
2023/07/10 03:54:03;;;;;;;19.65;9.30;;;;;;;19.21;100.00;101324.59;4928349;29;20138;-73
2023/07/10 03:56:28;;;;;;;16.33;8.88;;;;;;;19.27;100.00;101334.63;4928105;29;20047;-73
2023/07/10 03:58:54;;;;;;;15.03;9.73;;;;;;;19.30;100.00;101345.03;4921038;29;20067;-73
2023/07/10 04:01:19;;;;;;;17.63;10.45;;;;;;;19.23;100.00;101341.47;4924072;29;20152;-73
2023/07/10 04:03:44;;;;;;;17.90;11.20;;;;;;;19.23;100.00;101346.91;4940093;28;20043;-73
2023/07/10 04:06:12;;;;;;;20.73;11.13;;;;;;;19.32;100.00;101351.06;4946303;28;20070;-73
2023/07/10 04:08:40;;;;;;;24.23;11.48;;;;;;;19.45;100.00;101357.53;4941048;28;20078;-73
2023/07/10 04:11:09;;;;;;;14.73;10.80;;;;;;;19.46;100.00;101364.66;4925263;29;20105;-73
2023/07/10 04:13:35;;;;;;;16.50;11.77;;;;;;;19.46;100.00;101353.81;4928784;29;20106;-73
2023/07/10 04:16:03;;;;;;;15.13;10.93;;;;;;;19.50;100.00;101339.66;4923539;29;20036;-74
2023/07/10 04:18:31;;;;;;;16.40;11.00;;;;;;;19.52;100.00;101336.72;4913929;29;20481;-73
2023/07/10 04:20:58;;;;;;;17.67;10.48;;;;;;;19.61;100.00;101352.56;4931398;29;20043;-73
2023/07/10 04:23:24;;;;;;;14.82;10.77;;;;;;;19.63;100.00;101346.94;4928501;28;20492;-73
2023/07/10 04:25:49;;;;;;;17.20;10.25;;;;;;;19.72;100.00;101334.88;4925602;29;20032;-73
2023/07/10 04:28:15;;;;;;;15.83;10.73;;;;;;;19.77;100.00;101329.66;4931125;29;20484;-73
2023/07/10 04:30:40;;;;;;;14.15;10.77;;;;;;;19.86;100.00;101326.75;4924784;29;20139;-73
2023/07/10 04:33:08;;;;;;;19.70;11.82;;;;;;;19.73;100.00;101305.91;4922007;29;20031;-73
2023/07/10 04:35:34;;;;;;;16.90;11.35;;;;;;;19.85;100.00;101309.66;4923444;29;20488;-73
2023/07/10 04:37:59;;;;;;;18.63;11.18;;;;;;;19.99;100.00;101303.19;4937364;28;20040;-73
2023/07/10 04:40:25;;;;;;;15.77;11.02;;;;;;;20.04;100.00;101294.41;4927311;29;20481;-73
2023/07/10 04:42:51;;;;;;;19.93;11.10;;;;;;;20.02;100.00;101286.50;4920269;29;20408;-73
2023/07/10 04:45:17;;;;;;;17.17;11.82;;;;;;;20.15;100.00;101284.78;4927005;29;20477;-73
2023/07/10 04:47:42;;;;;;;26.13;12.13;;;;;;;20.07;100.00;101277.72;4927936;29;20057;-73
2023/07/10 04:50:08;;;;;;;19.87;11.93;;;;;;;19.99;100.00;101273.38;4927159;29;20062;-73
2023/07/10 04:52:34;;;;;;;23.75;13.25;;;;;;;20.10;100.00;101263.75;4923165;28;20150;-73
2023/07/10 04:54:59;;;;;;;23.93;12.03;;;;;;;20.10;100.00;101258.31;4928457;29;20039;-73
2023/07/10 04:57:24;;;;;;;20.93;13.67;;;;;;;20.29;100.00;101267.44;4927210;29;20118;-73
2023/07/10 04:59:50;;;;;;;18.80;12.27;;;;;;;20.23;100.00;101250.16;4944355;28;20032;-73
2023/07/10 05:02:15;;;;;;;21.40;11.13;;;;;;;20.22;100.00;101251.19;4925842;28;20028;-73
2023/07/10 05:04:41;;;;;;;21.50;11.87;;;;;;;20.18;100.00;101249.13;4936815;28;20090;-73
2023/07/10 05:07:06;;;;;;;23.10;13.02;;;;;;;20.22;100.00;101251.19;4939219;28;20316;-73
2023/07/10 05:09:32;;;;;;;22.50;12.60;;;;;;;20.18;100.00;101254.53;4920484;29;20471;-73
2023/07/10 05:11:58;;;;;;;18.83;13.90;;;;;;;20.15;100.00;101244.97;4933225;29;20064;-73
2023/07/10 05:14:24;;;;;;;21.30;12.02;;;;;;;20.17;100.00;101263.72;4929312;29;20024;-73
2023/07/10 05:16:50;;;;;;;25.40;12.00;;;;;;;20.20;100.00;101280.38;4941085;28;20040;-73
2023/07/10 05:19:15;;;;;;;17.75;12.82;;;;;;;20.26;100.00;101277.88;4932108;28;20027;-73
2023/07/10 05:21:40;;;;;;;18.63;11.60;;;;;;;20.15;100.00;101253.09;4925658;29;20397;-73
2023/07/10 05:24:06;;;;;;;22.60;12.73;;;;;;;20.22;100.00;101248.47;4945038;28;20034;-73
2023/07/10 05:26:31;;;;;;;24.20;12.10;;;;;;;20.16;100.00;101234.97;4936575;29;20036;-73
2023/07/10 05:28:57;;;;;;;21.67;12.00;;;;;;;20.13;100.00;101233.50;4931105;29;20280;-73
2023/07/10 05:31:22;;;;;;;18.00;11.73;;;;;;;20.26;100.00;101253.50;4932978;29;20035;-73
2023/07/10 05:33:50;;;;;;;27.35;13.60;;;;;;;20.30;100.00;101257.41;4925581;29;20031;-73
2023/07/10 05:36:16;;;;;;;24.38;12.15;;;;;;;20.29;100.00;101251.16;4938962;28;20035;-73
2023/07/10 05:38:42;;;;;;;16.98;10.85;;;;;;;20.14;100.00;101259.56;4932287;29;20038;-73
2023/07/10 05:41:08;;;;;;;23.15;11.40;;;;;;;20.26;100.00;101265.16;4939200;23;20522;-86
2023/07/10 05:43:40;;;;;;;20.80;10.43;;;;;;;20.31;100.00;101261.81;4946052;28;20032;-85
2023/07/10 05:46:06;;;;;;;17.52;10.95;;;;;;;20.37;100.00;101263.66;4945624;29;20032;-86
2023/07/10 05:48:32;;;;;;;18.60;10.73;;;;;;;20.38;100.00;101257.19;4943864;28;20020;-86
2023/07/10 05:50:58;;;;;;;;;;;;;;;20.35;100.00;101239.47;4968088;28;20078;-87
2023/07/10 05:53:24;;;;;;;20.45;12.77;;;;;;;20.26;100.00;101224.50;4949100;29;19919;-83
2023/07/10 05:55:52;;;;;;;20.50;11.00;;;;;;;20.23;100.00;101233.91;4970057;28;20043;-84
2023/07/10 05:58:19;;;;;;;20.95;12.50;;;;;;;20.19;100.00;101246.19;4975375;28;20023;-87
2023/07/10 06:00:48;;;;;;;17.73;12.27;;;;;;;20.06;100.00;101229.97;4964328;28;20035;-86
2023/07/10 06:03:14;;;;;;;16.30;9.10;;;;;;;20.10;100.00;101241.22;4949803;28;20583;-87
2023/07/10 06:05:40;;;;;;;15.05;10.43;;;;;;;20.20;100.00;101250.56;4921745;29;20074;-87
2023/07/10 06:08:07;;;;;;;17.13;13.30;;;;;;;19.97;100.00;101228.53;4930280;28;20027;-88
2023/07/10 06:10:34;;;;;;;15.32;12.23;;;;;;;19.86;100.00;101261.72;4943817;28;20117;-87
2023/07/10 06:12:59;;;;;;;19.80;11.77;;;;;;;19.94;100.00;101291.31;4960815;28;20093;-86
2023/07/10 06:15:25;;;;;;;18.90;11.60;;;;;;;20.00;100.00;101285.88;4960626;28;20490;-88
2023/07/10 06:17:50;;;;;;;19.50;10.98;;;;;;;20.12;100.00;101286.06;4959564;28;20028;-85
2023/07/10 06:20:16;;;;;;;24.07;11.43;;;;;;;20.38;100.00;101277.00;4925615;29;20036;-82
2023/07/10 06:22:42;;;;;;;22.17;12.25;;;;;;;20.47;100.00;101257.78;4927730;29;20182;-85
2023/07/10 06:25:07;;;;;;;18.17;9.90;;;;;;;20.62;100.00;101256.47;4962474;28;20087;-85
2023/07/10 06:27:33;;;;;;;17.75;10.80;;;;;;;20.57;100.00;101222.91;4959476;28;20043;-86
2023/07/10 06:29:59;;;;;;;16.83;11.98;;;;;;;20.54;100.00;101205.16;4965513;28;20090;-87
2023/07/10 06:32:25;;;;;;;23.70;11.90;;;;;;;20.47;100.00;101203.53;4947570;29;20035;-88
2023/07/10 06:34:50;;;;;;;17.33;11.20;;;;;;;20.57;100.00;101207.47;4953596;28;20046;-87
2023/07/10 06:37:15;;;;;;;21.27;10.63;;;;;;;20.62;100.00;101218.50;4930848;28;20286;-87
2023/07/10 06:39:41;;;;;;;20.27;12.37;;;;;;;20.70;100.00;101208.44;4934544;28;20036;-86
2023/07/10 06:42:09;;;;;;;20.67;10.57;;;;;;;20.77;100.00;101182.94;4932874;29;20500;-88
2023/07/10 06:44:34;;;;;;;22.27;11.70;;;;;;;21.10;100.00;101206.28;4963914;28;20070;-88
2023/07/10 06:47:00;;;;;;;25.03;12.07;;;;;;;21.07;100.00;101147.84;4920403;28;20450;-88
2023/07/10 06:49:26;;;;;;;22.57;10.83;;;;;;;21.38;100.00;101167.81;4936834;28;20032;-88
2023/07/10 06:51:51;;;;;;;20.13;11.82;;;;;;;21.64;100.00;101138.75;4958212;28;20288;-88
2023/07/10 06:54:17;;;;;;;17.13;10.80;;;;;;;21.49;100.00;101101.91;4929078;29;20135;-89
2023/07/10 06:56:42;;;;;;;18.47;10.90;;;;;;;21.62;100.00;101117.22;4931566;29;20031;-88
2023/07/10 06:59:07;;;;;;;20.07;10.23;;;;;;;21.97;100.00;101092.13;4965704;28;20311;-88
2023/07/10 07:01:33;;;;;;;16.03;9.47;;;;;;;22.07;100.00;101058.94;4963438;28;20520;-89
2023/07/10 07:03:58;;;;;;;14.43;8.77;;;;;;;21.90;100.00;101024.25;4947940;28;20198;-89
2023/07/10 07:06:23;;;;;;;13.90;9.32;;;;;;;21.73;100.00;101033.28;4934370;29;20038;-89
2023/07/10 07:08:51;;;;;;;18.93;10.23;;;;;;;21.76;100.00;101093.44;4952182;28;20043;-87
2023/07/10 07:11:17;;;;;;;18.90;10.77;;;;;;;21.49;100.00;101114.63;4932392;29;20079;-88
2023/07/10 07:13:43;;;;;;;14.45;9.18;;;;;;;21.52;100.00;101107.94;4934196;29;20044;-87
2023/07/10 07:16:08;;;;;;;13.73;9.02;;;;;;;21.17;100.00;101094.91;4923066;29;20027;-88
2023/07/10 07:18:34;;;;;;;15.02;8.95;;;;;;;21.17;100.00;101165.50;4945126;28;20035;-88
2023/07/10 07:21:00;;;;;;;14.05;9.32;;;;;;;21.19;100.00;101166.09;4948274;29;20450;-86
2023/07/10 07:23:27;;;;;;;13.70;9.80;;;;;;;20.94;100.00;101161.50;4961645;28;20071;-87
2023/07/10 07:25:56;;;;;;;15.27;9.70;;;;;;;20.82;100.00;101166.81;4965724;28;20120;-87
2023/07/10 07:28:22;;;;;;;14.13;11.18;;;;;;;20.69;100.00;101206.78;4943498;28;20039;-88
2023/07/10 07:30:48;;;;;;;15.80;10.70;;;;;;;20.39;100.00;101199.19;4957033;28;20038;-87
2023/07/10 07:33:18;;;;;;;20.07;9.77;;;;;;;20.39;100.00;101239.84;4962960;28;20256;-87
2023/07/10 07:35:43;;;;;;;19.23;10.60;;;;;;;20.37;100.00;101228.38;4925736;28;20031;-87
2023/07/10 07:38:09;;;;;;;17.38;11.57;;;;;;;20.33;100.00;101246.16;4959376;28;20441;-88
2023/07/10 07:40:35;;;;;;;16.10;9.97;;;;;;;20.28;100.00;101281.22;4943855;28;20028;-87
2023/07/10 07:43:01;;;;;;;22.60;12.50;;;;;;;19.99;100.00;101305.03;4923851;29;20295;-90
2023/07/10 07:45:26;;;;;;;32.23;15.57;;;;;;;19.78;100.00;101366.56;4935350;29;20027;-89
2023/07/10 07:47:52;;;;;;;24.57;16.40;;;;;;;19.52;100.00;101388.16;4950729;28;20548;-89
2023/07/10 07:50:17;;;;;;;23.57;13.83;;;;;;;19.57;100.00;101397.38;4928849;29;20058;-90
2023/07/10 07:52:43;;;;;;;29.05;16.25;;;;;;;19.64;100.00;101400.06;4928376;29;20039;-89
2023/07/10 07:55:09;;;;;;;26.20;17.33;;;;;;;19.71;100.00;101381.13;4964205;28;20022;-90
2023/07/10 07:57:34;;;;;;;29.52;17.50;;;;;;;19.63;100.00;101394.88;4963734;28;20044;-90
2023/07/10 08:00:00;;;;;;;41.42;20.27;;;;;;;19.67;100.00;101401.53;4939829;28;20031;-89
2023/07/10 08:02:26;;;;;;;19.52;14.85;;;;;;;19.68;100.00;101409.47;4946661;29;20082;-86
2023/07/10 08:04:51;;;;;;;27.23;17.80;;;;;;;19.47;100.00;101402.31;4916405;28;20043;-88
2023/07/10 08:07:17;;;;;;;28.67;18.40;;;;;;;19.40;100.00;101410.44;4941887;28;20039;-89
2023/07/10 08:09:45;;;;;;;29.60;19.80;;;;;;;19.49;100.00;101412.97;4959004;28;20035;-88
2023/07/10 08:12:10;;;;;;;26.67;18.80;;;;;;;19.55;100.00;101417.53;4927935;29;20042;-88
2023/07/10 08:14:36;;;;;;;32.07;23.03;;;;;;;19.57;100.00;101407.34;4947881;28;20027;-86
2023/07/10 08:17:02;;;;;;;29.45;18.30;;;;;;;19.71;100.00;101405.50;4955529;28;20127;-88
2023/07/10 08:19:27;;;;;;;24.45;16.23;;;;;;;19.71;100.00;101389.25;4931991;29;20114;-89
2023/07/10 08:21:57;;;;;;;29.00;18.33;;;;;;;19.85;100.00;101382.81;4922257;29;20032;-87
2023/07/10 08:24:23;;;;;;;22.55;16.58;;;;;;;19.96;100.00;101373.22;4924400;29;20268;-88
2023/07/10 08:26:49;;;;;;;29.60;16.88;;;;;;;20.07;100.00;101366.34;4930857;29;20040;-87
2023/07/10 08:29:26;;;;;;;25.80;17.07;;;;;;;20.32;100.00;101370.06;4919844;29;20108;-88
2023/07/10 08:31:54;;;;;;;24.73;17.10;;;;;;;20.35;100.00;101369.63;4961268;28;20035;-88
2023/07/10 08:34:19;;;;;;;31.58;19.85;;;;;;;20.33;100.00;101358.16;4961667;28;20047;-86
2023/07/10 08:36:45;;;;;;;25.10;16.50;;;;;;;20.09;100.00;101351.53;4961803;28;20067;-88
2023/07/10 08:39:10;;;;;;;27.07;17.47;;;;;;;19.86;100.00;101340.31;4923962;28;20050;-86
2023/07/10 08:41:36;;;;;;;30.50;20.98;;;;;;;19.74;100.00;101337.41;4920871;29;20098;-88
2023/07/10 08:44:01;;;;;;;30.17;20.80;;;;;;;19.73;100.00;101349.25;4939923;29;20042;-89
2023/07/10 08:46:27;;;;;;;31.92;20.30;;;;;;;19.82;100.00;101348.84;4947288;28;20159;-88
2023/07/10 08:49:03;;;;;;;30.77;21.50;;;;;;;19.90;100.00;101352.38;4967336;28;20023;-87
2023/07/10 08:51:52;;;;;;;28.17;20.67;;;;;;;20.14;100.00;101368.00;4918373;29;20039;-87
2023/07/10 08:54:18;;;;;;;34.50;21.60;;;;;;;20.05;100.00;101358.41;4911459;29;20299;-88
2023/07/10 08:56:46;;;;;;;;;;;;;;;20.18;100.00;101361.13;4946558;28;20838;-84
2023/07/10 08:59:34;;;;;;;32.80;24.33;;;;;;;20.19;100.00;101364.66;4949459;28;19914;-88
2023/07/10 09:02:00;;;;;;;30.65;22.02;;;;;;;19.81;100.00;101344.47;4941608;29;20111;-87
2023/07/10 09:04:26;;;;;;;30.70;23.92;;;;;;;19.82;100.00;101343.41;4921892;29;20115;-88
2023/07/10 09:06:56;;;;;;;31.50;22.85;;;;;;;19.80;100.00;101355.50;4958754;28;20040;-88
2023/07/10 09:09:44;;;;;;;34.78;26.27;;;;;;;19.74;100.00;101361.78;4961814;28;20031;-88
2023/07/10 09:12:36;;;;;;;40.47;26.45;;;;;;;19.72;100.00;101364.69;4939101;29;20035;-88
2023/07/10 09:15:08;;;;;;;35.00;26.10;;;;;;;19.88;100.00;101377.00;4934358;29;20050;-88
2023/07/10 09:17:46;;;;;;;34.35;25.88;;;;;;;19.93;100.00;101360.09;4937455;28;20513;-89
2023/07/10 09:20:13;;;;;;;33.65;25.85;;;;;;;19.99;100.00;101359.25;4945936;28;20073;-88
2023/07/10 09:22:48;;;;;;;37.13;27.88;;;;;;;20.24;100.00;101362.97;4931931;29;20058;-87
2023/07/10 09:25:14;;;;;;;33.75;23.48;;;;;;;20.45;100.00;101358.34;4932491;29;20047;-88
2023/07/10 09:27:46;;;;;;;;;;;;;;;20.59;100.00;101340.16;4957139;28;20043;-87
2023/07/10 09:30:22;;;;;;;29.75;20.25;;;;;;;20.49;100.00;101318.91;4940503;28;20274;-88
2023/07/10 09:32:50;;;;;;;31.23;22.77;;;;;;;20.57;100.00;101328.69;4945996;29;20035;-88
2023/07/10 09:35:16;;;;;;;25.92;20.05;;;;;;;20.70;100.00;101322.38;4965576;28;20481;-89
2023/07/10 09:37:49;;;;;;;25.55;19.73;;;;;;;21.76;100.00;101343.44;4952500;28;20043;-89
2023/07/10 09:40:30;;;;;;;27.10;19.15;;;;;;;22.70;100.00;101311.50;4955453;28;20063;-88
2023/07/10 09:43:02;;;;;;;22.15;17.60;;;;;;;22.56;100.00;101269.19;4935402;29;20421;-88
2023/07/10 09:45:32;;;;;;;20.48;14.45;;;;;;;22.18;100.00;101224.03;4930182;29;20201;-89
2023/07/10 09:47:58;;;;;;;16.08;12.05;;;;;;;22.29;100.00;101217.84;4965072;28;20094;-89
2023/07/10 09:50:24;;;;;;;19.15;14.38;;;;;;;21.67;100.00;101192.63;4967662;28;20019;-89
2023/07/10 09:52:55;;;;;;;20.33;11.50;;;;;;;21.63;100.00;101224.84;4932503;29;20463;-89
2023/07/10 09:55:22;;;;;;;12.57;9.65;;;;;;;21.92;100.00;101214.31;4969255;28;20454;-89
2023/07/10 09:57:47;;;;;;;13.10;9.32;;;;;;;22.37;100.00;101267.56;4969122;28;20444;-89
2023/07/10 10:00:16;;;;;;;12.37;7.03;;;;;;;23.29;100.00;101227.28;4952875;28;20038;-88
2023/07/10 10:03:13;;;;;;;6.47;5.00;;;;;;;23.26;100.00;101167.84;4968393;28;20509;-89
2023/07/10 10:05:42;;;;;;;6.75;4.93;;;;;;;22.77;100.00;101072.72;4952642;28;20043;-87
2023/07/10 10:08:42;;;;;;;5.90;4.50;;;;;;;22.81;100.00;101105.75;4953021;28;20031;-87
2023/07/10 10:11:10;;;;;;;5.13;3.45;;;;;;;22.62;100.00;101102.28;4908745;29;20063;-87
2023/07/10 10:13:41;;;;;;;4.72;3.92;;;;;;;21.98;100.00;101060.31;4900009;29;20054;-87
2023/07/10 10:16:12;;;;;;;4.68;3.38;;;;;;;22.09;100.00;101163.69;4908477;29;20043;-87
2023/07/10 10:19:16;;;;;;;4.07;3.13;;;;;;;21.79;100.00;101190.81;4913749;29;20048;-87
2023/07/10 10:21:42;;;;;;;4.15;3.38;;;;;;;21.84;100.00;101193.66;4881657;29;20176;-89
2023/07/10 10:24:10;;;;;;;3.78;3.08;;;;;;;21.69;100.00;101228.56;4912632;29;20035;-88
2023/07/10 10:26:56;;;;;;;4.93;3.45;;;;;;;21.91;100.00;101247.97;4913211;29;20160;-85
2023/07/10 10:29:40;;;;;;;;;;;;;;;22.59;100.00;101282.31;4902906;29;20043;-88
2023/07/10 10:32:37;;;;;;;3.03;2.50;;;;;;;23.65;100.00;101178.22;4908605;29;19919;-86
2023/07/10 10:35:09;;;;;;;3.30;2.40;;;;;;;23.49;100.00;101066.19;4881849;29;20120;-86
2023/07/10 10:38:18;;;;;;;4.50;2.70;;;;;;;23.05;100.00;101014.03;4904780;29;20243;-88
2023/07/10 10:41:04;;;;;;;2.92;2.33;;;;;;;23.57;100.00;101035.00;4922066;29;20051;-86
2023/07/10 10:43:32;;;;;;;4.72;2.88;;;;;;;23.82;100.00;101099.31;4892605;29;20037;-83
2023/07/10 10:46:13;;;;;;;3.92;2.20;;;;;;;24.23;100.00;100987.19;4917332;29;20476;-86
2023/07/10 10:48:48;;;;;;;4.38;2.70;;;;;;;24.38;100.00;100926.56;4929737;29;20061;-83
2023/07/10 10:51:54;;;;;;;2.55;1.95;;;;;;;24.47;100.00;100899.72;4943936;28;20032;-85
2023/07/10 10:54:56;;;;;;;6.63;2.63;;;;;;;24.11;100.00;100791.94;4921783;29;20126;-86
2023/07/10 10:57:35;;;;;;;5.50;2.28;;;;;;;25.06;100.00;100858.94;4923264;29;20051;-85
2023/07/10 11:00:21;;;;;;;4.03;2.38;;;;;;;25.24;100.00;100715.75;4924530;29;20072;-86
2023/07/10 11:03:04;;;;;;;5.10;2.17;;;;;;;24.74;100.00;100670.47;4891398;29;20078;-84
2023/07/10 11:05:34;;;;;;;5.35;2.63;;;;;;;24.58;100.00;100715.06;4927544;29;20584;-85
2023/07/10 11:08:05;;;;;;;3.50;2.50;;;;;;;24.53;100.00;100740.41;4909155;29;20059;-86
2023/07/10 11:10:36;;;;;;;7.00;2.53;;;;;;;24.44;100.00;100793.75;4910337;29;20997;-83
2023/07/10 11:13:05;;;;;;;3.72;2.47;;;;;;;25.00;100.00;100779.94;4908839;29;20139;-84